Time;durP1;ratioP1;P1;durP2;ratioP2;P2;SDS_P1;SDS_P2;PMS_P1;PMS_P2;Temp;Humidity;BMP_temperature;BMP_pressure;BME280_temperature;BME280_humidity;BME280_pressure;Samples;Min_cycle;Max_cycle;Signal;HPM_P1;HPM_P2
2021/05/31 00:02:18;;;;;;;6.15;3.90;;;15.20;61.00;;;;;;4974435;28;20447;-90
2021/05/31 00:04:59;;;;;;;7.38;3.85;;;15.20;61.30;;;;;;4972612;28;20038;-93
2021/05/31 00:07:24;;;;;;;5.47;4.00;;;15.10;61.40;;;;;;4970555;28;20023;-94
2021/05/31 00:09:55;;;;;;;6.22;4.20;;;15.10;61.70;;;;;;4973070;28;20034;-94
2021/05/31 00:12:20;;;;;;;4.82;3.15;;;15.10;61.90;;;;;;4972106;28;20390;-95
2021/05/31 00:14:46;;;;;;;6.20;3.75;;;15.00;61.90;;;;;;4959934;28;20035;-92
2021/05/31 00:17:13;;;;;;;4.97;3.50;;;15.00;62.20;;;;;;4973017;28;20097;-93
2021/05/31 00:19:40;;;;;;;4.32;3.45;;;15.00;62.30;;;;;;4974217;28;20019;-94
2021/05/31 00:22:06;;;;;;;7.03;4.00;;;15.00;62.40;;;;;;4974828;28;20082;-91
2021/05/31 00:24:32;;;;;;;7.03;4.32;;;14.90;62.60;;;;;;4974356;28;20110;-91
2021/05/31 00:26:57;;;;;;;8.25;4.32;;;14.90;62.90;;;;;;4973344;28;20014;-92
2021/05/31 00:29:24;;;;;;;7.63;4.53;;;14.90;63.10;;;;;;4972962;28;20158;-94
2021/05/31 00:31:58;;;;;;;6.80;4.93;;;14.90;63.30;;;;;;4972979;28;20047;-94
2021/05/31 00:34:25;;;;;;;6.80;4.68;;;14.80;63.50;;;;;;4972996;28;20030;-93
2021/05/31 00:36:51;;;;;;;5.53;4.18;;;14.80;63.60;;;;;;4974536;28;20031;-92
2021/05/31 00:39:20;;;;;;;6.82;4.15;;;14.80;63.70;;;;;;4974295;28;20027;-93
2021/05/31 00:41:48;;;;;;;5.07;4.03;;;14.70;63.70;;;;;;4974529;28;20093;-92
2021/05/31 00:44:14;;;;;;;7.03;5.03;;;14.70;63.90;;;;;;4973205;28;20062;-92
2021/05/31 00:46:40;;;;;;;6.50;4.75;;;14.70;64.10;;;;;;4973374;28;20105;-93
2021/05/31 00:49:06;;;;;;;6.95;4.60;;;14.70;64.30;;;;;;4974354;28;20523;-93
2021/05/31 00:51:32;;;;;;;7.43;4.30;;;14.60;64.50;;;;;;4973520;28;20018;-95
2021/05/31 00:53:59;;;;;;;6.35;4.70;;;14.60;64.80;;;;;;4973311;28;20082;-92
2021/05/31 00:56:24;;;;;;;6.32;4.50;;;14.60;64.90;;;;;;4974535;28;20019;-92
2021/05/31 00:58:50;;;;;;;6.65;4.70;;;14.50;64.90;;;;;;4973690;28;20050;-91
2021/05/31 01:01:16;;;;;;;8.98;4.93;;;14.50;65.30;;;;;;4972963;28;20043;-91
2021/05/31 01:03:42;;;;;;;8.80;4.72;;;14.50;65.40;;;;;;4972572;28;20043;-91
2021/05/31 01:06:11;;;;;;;7.20;5.22;;;14.40;65.50;;;;;;4973070;28;20113;-92
2021/05/31 01:08:57;;;;;;;9.10;6.22;;;14.40;65.80;;;;;;4972433;28;20031;-90
2021/05/31 01:11:39;;;;;;;9.20;4.70;;;14.40;66.10;;;;;;4974180;28;20023;-93
2021/05/31 01:14:22;;;;;;;5.73;4.17;;;14.40;66.20;;;;;;4974422;28;20026;-92
2021/05/31 01:16:59;;;;;;;8.70;6.22;;;14.30;66.20;;;;;;4954656;28;20777;-92
2021/05/31 01:19:53;;;;;;;7.35;5.60;;;14.30;67.40;;;;;;4966913;28;20023;-92
2021/05/31 01:22:28;;;;;;;7.75;5.00;;;14.20;67.20;;;;;;4973030;28;20027;-92
2021/05/31 01:25:05;;;;;;;8.13;5.50;;;14.20;67.40;;;;;;4973365;28;20055;-91
2021/05/31 01:28:02;;;;;;;7.72;4.57;;;14.20;67.60;;;;;;4972165;28;20019;-90
2021/05/31 01:30:27;;;;;;;8.30;4.88;;;14.20;67.40;;;;;;4973828;28;20469;-93
2021/05/31 01:32:55;;;;;;;7.72;5.05;;;14.20;67.50;;;;;;4976189;28;20049;-92
2021/05/31 01:35:28;;;;;;;7.13;4.70;;;14.20;67.50;;;;;;4982773;28;20022;-91
2021/05/31 01:37:56;;;;;;;7.50;4.63;;;14.20;67.60;;;;;;4973517;28;20031;-91
2021/05/31 01:40:23;;;;;;;6.47;5.03;;;14.20;67.60;;;;;;4973264;28;20027;-92
2021/05/31 01:42:56;;;;;;;7.43;5.10;;;14.20;67.60;;;;;;4992235;28;20088;-92
2021/05/31 01:45:23;;;;;;;9.88;5.82;;;14.10;67.70;;;;;;4997039;28;20026;-92
2021/05/31 01:47:49;;;;;;;7.63;5.32;;;14.10;68.00;;;;;;4996428;28;20025;-93
2021/05/31 01:50:15;;;;;;;9.82;5.88;;;14.10;68.00;;;;;;4990043;28;20023;-91
2021/05/31 01:52:50;;;;;;;7.03;5.43;;;14.10;68.20;;;;;;4978309;28;20481;-92
2021/05/31 01:55:16;;;;;;;8.30;5.43;;;14.00;68.20;;;;;;4978729;28;20031;-92
2021/05/31 01:57:46;;;;;;;8.05;5.15;;;14.10;68.30;;;;;;4977875;28;20039;-92
2021/05/31 02:00:13;;;;;;;7.43;5.38;;;14.10;68.40;;;;;;4977432;28;20375;-93
2021/05/31 02:02:40;;;;;;;6.80;5.13;;;14.00;68.40;;;;;;4982191;28;20018;-93
2021/05/31 02:05:10;;;;;;;7.20;5.03;;;14.00;68.50;;;;;;4983504;28;20440;-91
2021/05/31 02:07:38;;;;;;;6.78;4.82;;;14.00;68.50;;;;;;4982875;28;20018;-91
2021/05/31 02:10:06;;;;;;;7.03;4.90;;;14.00;68.50;;;;;;4981652;28;20482;-91
2021/05/31 02:12:38;;;;;;;9.82;6.55;;;14.00;68.70;;;;;;4979627;28;20030;-91
2021/05/31 02:15:08;;;;;;;9.35;5.85;;;13.90;69.00;;;;;;4985280;28;20054;-91
2021/05/31 02:17:45;;;;;;;7.05;5.30;;;13.90;69.00;;;;;;4981625;28;20045;-92
2021/05/31 02:20:17;;;;;;;7.60;5.70;;;13.90;69.00;;;;;;4960380;28;20450;-91
2021/05/31 02:22:49;;;;;;;8.40;5.93;;;13.90;69.20;;;;;;4992336;28;20050;-93
2021/05/31 02:25:16;;;;;;;9.48;5.80;;;13.90;69.10;;;;;;4977973;28;20031;-93
2021/05/31 02:27:43;;;;;;;10.18;6.05;;;13.90;69.20;;;;;;4978257;28;20474;-92
2021/05/31 02:30:10;;;;;;;8.57;6.25;;;13.80;69.20;;;;;;4975927;28;20034;-91
2021/05/31 02:32:36;;;;;;;7.70;5.57;;;13.80;69.30;;;;;;4972839;28;20027;-91
2021/05/31 02:35:09;;;;;;;7.60;4.95;;;13.80;69.30;;;;;;4957651;28;20182;-91
2021/05/31 02:37:39;;;;;;;8.70;5.95;;;13.80;69.30;;;;;;4956013;28;20158;-92
2021/05/31 02:40:07;;;;;;;9.57;6.55;;;13.70;69.30;;;;;;4974235;28;20023;-92
2021/05/31 02:42:45;;;;;;;8.02;5.88;;;13.80;69.60;;;;;;4976267;28;20394;-89
2021/05/31 02:45:12;;;;;;;9.15;5.60;;;13.80;69.60;;;;;;4972675;28;20030;-89
2021/05/31 02:47:37;;;;;;;8.52;5.90;;;13.70;69.50;;;;;;4975923;28;20035;-90
2021/05/31 02:50:04;;;;;;;7.43;6.30;;;13.70;69.60;;;;;;4976317;28;20111;-92
2021/05/31 02:52:30;;;;;;;8.57;5.32;;;13.70;69.80;;;;;;4975948;28;20121;-92
2021/05/31 02:54:55;;;;;;;9.82;6.35;;;13.70;69.70;;;;;;4976178;28;20119;-90
2021/05/31 02:57:21;;;;;;;7.40;5.22;;;13.60;69.70;;;;;;4975682;28;20034;-91
2021/05/31 02:59:46;;;;;;;8.10;5.72;;;13.60;69.70;;;;;;4975834;28;20117;-91
2021/05/31 03:02:12;;;;;;;7.45;5.20;;;13.60;69.90;;;;;;4976220;28;20050;-90
2021/05/31 03:04:38;;;;;;;6.93;5.13;;;13.60;69.80;;;;;;4970466;28;20065;-90
2021/05/31 03:07:04;;;;;;;6.95;5.22;;;13.50;69.80;;;;;;4975835;28;20038;-90
2021/05/31 03:09:30;;;;;;;6.30;4.43;;;13.50;69.90;;;;;;4975295;28;20061;-91
2021/05/31 03:11:55;;;;;;;8.25;6.43;;;13.50;69.80;;;;;;4974278;28;20026;-91
2021/05/31 03:14:21;;;;;;;7.32;5.75;;;13.50;70.00;;;;;;4975632;28;20026;-92
2021/05/31 03:16:46;;;;;;;8.52;6.35;;;13.50;70.10;;;;;;4974539;28;20027;-91
2021/05/31 03:19:12;;;;;;;9.63;6.35;;;13.50;70.10;;;;;;4975386;28;20077;-93
2021/05/31 03:21:37;;;;;;;9.90;6.72;;;13.50;70.10;;;;;;4975957;28;20031;-94
2021/05/31 03:24:03;;;;;;;8.20;6.78;;;13.50;70.10;;;;;;4975863;28;20520;-95
2021/05/31 03:26:29;;;;;;;9.18;7.10;;;13.40;70.20;;;;;;4974675;28;20584;-93
2021/05/31 03:28:55;;;;;;;10.18;6.97;;;13.40;70.50;;;;;;4975227;28;20450;-93
2021/05/31 03:31:20;;;;;;;9.35;6.40;;;13.30;70.70;;;;;;4974408;28;20035;-94
2021/05/31 03:33:46;;;;;;;9.27;5.97;;;13.30;70.70;;;;;;4975717;28;20481;-92
2021/05/31 03:36:11;;;;;;;11.07;7.68;;;13.30;71.20;;;;;;4975943;28;20426;-92
2021/05/31 03:38:37;;;;;;;7.32;5.78;;;13.20;71.20;;;;;;4975548;28;20023;-91
2021/05/31 03:41:03;;;;;;;10.13;7.68;;;13.20;71.40;;;;;;4976222;28;20023;-92
2021/05/31 03:43:28;;;;;;;9.77;7.03;;;13.20;71.60;;;;;;4973906;28;20081;-92
2021/05/31 03:45:54;;;;;;;9.52;7.20;;;13.10;71.60;;;;;;4974534;28;20065;-95
2021/05/31 03:48:19;;;;;;;9.30;6.35;;;13.10;71.70;;;;;;4974319;28;20026;-94
2021/05/31 03:50:45;;;;;;;9.88;6.93;;;13.10;71.70;;;;;;4975649;28;20030;-94
2021/05/31 03:53:10;;;;;;;9.88;6.35;;;13.10;71.60;;;;;;4975271;28;20027;-89
2021/05/31 03:55:36;;;;;;;10.40;6.63;;;13.10;71.60;;;;;;4975337;28;20051;-93
2021/05/31 03:58:17;;;;;;;7.72;5.85;;;13.10;72.00;;;;;;4974870;28;20022;-94
2021/05/31 04:00:42;;;;;;;11.63;8.63;;;13.10;71.90;;;;;;4974113;28;20035;-91
2021/05/31 04:03:10;;;;;;;9.02;6.38;;;13.10;72.10;;;;;;4975161;28;20023;-92
2021/05/31 04:05:36;;;;;;;12.95;7.95;;;13.10;72.20;;;;;;4974485;28;20051;-92
2021/05/31 04:13:29;;;;;;;8.95;6.20;;;13.20;72.10;;;;;;4975022;28;20585;-91
2021/05/31 04:15:54;;;;;;;11.00;7.07;;;13.20;71.80;;;;;;4974754;28;20019;-92
2021/05/31 04:18:20;;;;;;;8.55;5.97;;;13.20;71.70;;;;;;4973535;28;20030;-91
2021/05/31 04:20:46;;;;;;;8.85;6.15;;;13.20;71.70;;;;;;4973921;28;20027;-93
2021/05/31 04:23:11;;;;;;;12.05;6.53;;;13.30;72.20;;;;;;4974292;28;20059;-93
2021/05/31 04:25:37;;;;;;;7.40;5.47;;;13.30;71.60;;;;;;4974604;28;20058;-93
2021/05/31 04:28:03;;;;;;;7.00;4.38;;;13.30;71.50;;;;;;4989451;28;20027;-91
2021/05/31 04:30:28;;;;;;;8.35;5.75;;;13.30;71.30;;;;;;4971664;28;20405;-93
2021/05/31 04:32:54;;;;;;;9.82;5.80;;;13.30;71.50;;;;;;4974030;28;20210;-89
2021/05/31 04:35:19;;;;;;;14.18;9.70;;;13.40;71.50;;;;;;4973136;28;20105;-93
2021/05/31 04:37:45;;;;;;;14.20;10.38;;;13.30;72.40;;;;;;4972496;28;20481;-92
2021/05/31 04:40:11;;;;;;;15.35;10.80;;;13.30;72.90;;;;;;4958276;28;20050;-93
2021/05/31 04:42:36;;;;;;;8.77;5.85;;;13.30;73.10;;;;;;4973488;28;20162;-90
2021/05/31 04:45:03;;;;;;;14.05;10.63;;;13.30;72.70;;;;;;4972030;28;20109;-90
2021/05/31 04:47:29;;;;;;;7.53;6.25;;;13.40;72.90;;;;;;4969207;28;20027;-91
2021/05/31 04:49:55;;;;;;;10.18;7.05;;;13.40;72.60;;;;;;4973832;28;20049;-90
2021/05/31 04:52:21;;;;;;;7.32;5.18;;;13.50;72.50;;;;;;4970752;28;20170;-90
2021/05/31 04:54:48;;;;;;;8.45;5.93;;;13.60;72.10;;;;;;4972756;28;20030;-93
2021/05/31 04:57:14;;;;;;;7.40;5.55;;;14.20;71.30;;;;;;4973189;28;20026;-92
2021/05/31 04:59:39;;;;;;;7.13;5.15;;;15.10;69.10;;;;;;4973113;28;20150;-89
2021/05/31 05:02:05;;;;;;;8.35;6.10;;;15.90;66.70;;;;;;4974055;28;20034;-90
2021/05/31 05:04:30;;;;;;;8.55;6.07;;;16.50;64.50;;;;;;4972322;28;20098;-91
2021/05/31 05:06:56;;;;;;;7.72;5.60;;;17.20;62.50;;;;;;4972882;28;20030;-90
2021/05/31 05:09:22;;;;;;;6.95;5.20;;;17.70;61.00;;;;;;4973030;28;20034;-91
2021/05/31 05:11:47;;;;;;;9.95;6.43;;;18.30;59.60;;;;;;4973775;28;20130;-90
2021/05/31 05:14:14;;;;;;;6.50;4.93;;;18.80;58.40;;;;;;4972443;28;20038;-89
2021/05/31 05:16:40;;;;;;;8.45;5.50;;;19.30;57.20;;;;;;4971205;28;20065;-86
2021/05/31 05:19:05;;;;;;;7.32;5.50;;;19.70;56.20;;;;;;4970926;28;20489;-88
2021/05/31 05:21:31;;;;;;;7.32;5.40;;;20.10;55.30;;;;;;4972007;28;20034;-90
2021/05/31 05:23:56;;;;;;;9.65;6.80;;;20.50;54.50;;;;;;4971565;28;20422;-90
2021/05/31 05:26:23;;;;;;;7.85;5.65;;;20.40;53.90;;;;;;4974458;28;20030;-96
2021/05/31 05:28:49;;;;;;;5.97;4.68;;;20.50;53.90;;;;;;4961638;28;20157;-88
2021/05/31 05:31:15;;;;;;;8.55;5.50;;;20.80;53.80;;;;;;4971946;28;20114;-95
2021/05/31 05:33:42;;;;;;;8.73;4.93;;;21.10;53.30;;;;;;4968714;28;20122;-96
2021/05/31 05:36:28;;;;;;;4.97;3.80;;;21.40;52.80;;;;;;4972446;28;20386;-90
2021/05/31 05:46:45;;;;;;;6.80;4.47;;;22.00;51.90;;;;;;4972728;28;20026;-89
2021/05/31 05:49:10;;;;;;;7.38;5.45;;;22.30;51.50;;;;;;4971685;28;20023;-91
2021/05/31 05:51:37;;;;;;;7.60;4.93;;;22.30;51.30;;;;;;4972021;28;20028;-89
2021/05/31 05:54:04;;;;;;;7.85;5.97;;;22.30;51.10;;;;;;4970998;28;20401;-92
2021/05/31 05:56:31;;;;;;;6.75;5.07;;;22.00;51.50;;;;;;4971589;28;20109;-90
2021/05/31 05:58:56;;;;;;;10.98;6.47;;;22.20;51.40;;;;;;4972096;28;20030;-88
2021/05/31 06:01:22;;;;;;;9.07;6.28;;;21.90;51.60;;;;;;4971096;28;20582;-89
2021/05/31 06:03:51;;;;;;;6.68;4.50;;;21.60;52.30;;;;;;4970267;28;20063;-89
2021/05/31 06:06:18;;;;;;;5.10;3.88;;;21.80;52.70;;;;;;4970115;28;21438;-89
2021/05/31 06:08:47;;;;;;;7.95;5.38;;;22.10;52.60;;;;;;4966878;28;20146;-89
2021/05/31 06:11:12;;;;;;;7.95;5.13;;;21.70;52.60;;;;;;4971403;28;20097;-86
2021/05/31 06:13:40;;;;;;;7.05;4.32;;;21.60;53.10;;;;;;4970998;28;20105;-87
2021/05/31 06:16:06;;;;;;;6.82;4.80;;;21.70;53.40;;;;;;4969729;28;20030;-88
2021/05/31 06:18:31;;;;;;;7.75;4.97;;;21.60;53.50;;;;;;4970585;28;20019;-87
2021/05/31 06:20:57;;;;;;;6.72;4.95;;;21.30;53.70;;;;;;4972619;28;20078;-89
2021/05/31 06:23:23;;;;;;;8.65;5.32;;;20.90;54.00;;;;;;4970682;28;20031;-89
2021/05/31 06:25:49;;;;;;;6.65;4.70;;;20.50;54.70;;;;;;4971833;28;20107;-90
2021/05/31 06:28:15;;;;;;;7.10;5.43;;;20.50;55.10;;;;;;4970312;28;20049;-92
2021/05/31 06:30:41;;;;;;;7.22;5.22;;;20.40;55.30;;;;;;4974816;28;20525;-93
2021/05/31 06:33:07;;;;;;;6.07;4.28;;;20.30;55.50;;;;;;4976030;28;20486;-90
2021/05/31 06:35:33;;;;;;;6.30;4.03;;;20.20;55.90;;;;;;4974158;28;20031;-90
2021/05/31 06:37:58;;;;;;;8.27;5.07;;;20.20;56.00;;;;;;4976021;28;20433;-90
2021/05/31 06:40:25;;;;;;;8.63;5.43;;;20.10;55.30;;;;;;4975445;28;20669;-89
2021/05/31 06:42:50;;;;;;;9.27;6.30;;;20.00;55.50;;;;;;4974747;28;20015;-90
2021/05/31 06:45:23;;;;;;;9.32;5.88;;;20.00;55.80;;;;;;4975425;28;20034;-88
2021/05/31 06:47:50;;;;;;;8.73;5.05;;;20.00;55.90;;;;;;4974712;28;20031;-89
2021/05/31 06:50:17;;;;;;;8.30;4.95;;;20.00;55.90;;;;;;4974451;28;20027;-92
2021/05/31 06:52:44;;;;;;;7.25;4.68;;;20.10;56.00;;;;;;4976323;28;20033;-93
2021/05/31 06:55:10;;;;;;;7.72;3.97;;;20.10;56.10;;;;;;4976246;28;20669;-92
2021/05/31 06:57:36;;;;;;;11.45;6.13;;;20.30;56.20;;;;;;4975808;28;20035;-92
2021/05/31 07:00:05;;;;;;;9.48;5.35;;;20.30;55.90;;;;;;4973491;28;20023;-93
2021/05/31 07:02:31;;;;;;;6.50;4.60;;;20.50;56.00;;;;;;4973656;28;20031;-90
2021/05/31 07:04:57;;;;;;;7.13;5.65;;;20.70;55.80;;;;;;4976962;28;20073;-90
2021/05/31 07:07:22;;;;;;;7.43;4.53;;;20.80;55.30;;;;;;4977305;28;20042;-89
2021/05/31 07:09:48;;;;;;;8.13;5.07;;;20.80;55.20;;;;;;4973326;28;20031;-88
2021/05/31 07:12:15;;;;;;;9.18;5.47;;;20.70;55.30;;;;;;4973569;28;20121;-88
2021/05/31 07:14:46;;;;;;;9.00;4.50;;;20.80;55.50;;;;;;4963709;28;20541;-91
2021/05/31 07:17:18;;;;;;;5.32;4.03;;;21.10;55.30;;;;;;4973005;28;20071;-93
2021/05/31 07:19:44;;;;;;;8.85;5.30;;;21.40;55.00;;;;;;4970345;28;20031;-90
2021/05/31 07:22:15;;;;;;;7.13;5.03;;;21.40;54.10;;;;;;4968604;28;20457;-90
2021/05/31 07:24:41;;;;;;;4.68;3.30;;;21.30;53.90;;;;;;4973275;28;20553;-92
2021/05/31 07:27:07;;;;;;;5.50;3.85;;;21.50;54.20;;;;;;4973893;28;20029;-92
2021/05/31 07:29:32;;;;;;;5.15;3.50;;;21.60;53.90;;;;;;4974121;28;20023;-92
2021/05/31 07:31:58;;;;;;;10.70;4.95;;;21.80;53.80;;;;;;4970399;28;20537;-91
2021/05/31 07:34:26;;;;;;;5.95;3.63;;;21.80;53.20;;;;;;4975391;28;20018;-92
2021/05/31 07:36:51;;;;;;;6.82;4.43;;;21.90;53.30;;;;;;4977231;28;20035;-93
2021/05/31 07:39:17;;;;;;;6.82;4.47;;;21.90;53.10;;;;;;4976788;28;20023;-94
2021/05/31 07:41:43;;;;;;;6.40;4.78;;;21.90;52.80;;;;;;4980913;28;20031;-93
2021/05/31 07:44:09;;;;;;;6.13;3.10;;;21.80;52.80;;;;;;4974999;28;20098;-93
2021/05/31 07:46:34;;;;;;;6.60;4.95;;;21.90;53.10;;;;;;4974637;28;20018;-91
2021/05/31 07:49:00;;;;;;;4.43;3.25;;;22.00;52.50;;;;;;4974203;28;20022;-89
2021/05/31 07:51:26;;;;;;;5.72;3.03;;;22.10;52.60;;;;;;4973256;28;20478;-89
2021/05/31 07:53:56;;;;;;;6.22;3.80;;;22.10;52.20;;;;;;4973803;28;20110;-90
2021/05/31 07:56:27;;;;;;;5.90;3.38;;;22.20;51.80;;;;;;4974622;28;20019;-95
2021/05/31 07:58:56;;;;;;;6.47;4.05;;;22.10;51.80;;;;;;4974675;28;20026;-92
2021/05/31 08:01:23;;;;;;;6.45;3.78;;;22.10;51.60;;;;;;4971817;28;20023;-91
2021/05/31 08:03:49;;;;;;;5.18;3.35;;;22.30;51.80;;;;;;4972045;28;20782;-92
2021/05/31 08:06:14;;;;;;;5.20;3.17;;;22.50;51.80;;;;;;4973157;28;20050;-91
2021/05/31 08:08:42;;;;;;;6.25;3.90;;;22.70;51.20;;;;;;4973721;28;20473;-90
2021/05/31 08:11:08;;;;;;;6.00;3.90;;;22.70;50.80;;;;;;4973237;28;20037;-85
2021/05/31 08:13:33;;;;;;;6.13;3.65;;;22.70;50.90;;;;;;4971626;28;20106;-88
2021/05/31 08:15:59;;;;;;;4.85;2.92;;;22.70;50.90;;;;;;4971946;28;20030;-89
2021/05/31 08:18:25;;;;;;;7.38;5.28;;;22.80;51.30;;;;;;4972734;28;20508;-90
2021/05/31 08:20:51;;;;;;;6.80;3.88;;;22.80;50.80;;;;;;4966716;28;20023;-88
2021/05/31 08:23:17;;;;;;;6.03;3.58;;;22.80;51.10;;;;;;4962975;28;20035;-89
2021/05/31 08:25:46;;;;;;;5.63;3.38;;;23.10;50.70;;;;;;4963590;28;20047;-88
2021/05/31 08:28:12;;;;;;;5.43;3.38;;;23.30;50.00;;;;;;4969582;28;20018;-89
2021/05/31 08:30:42;;;;;;;4.43;2.90;;;23.40;49.60;;;;;;4970377;28;20085;-87
2021/05/31 08:33:07;;;;;;;5.95;3.60;;;23.60;49.90;;;;;;4971131;28;20680;-90
2021/05/31 08:35:36;;;;;;;5.10;3.35;;;23.80;49.60;;;;;;4970491;28;20027;-88
2021/05/31 08:38:02;;;;;;;4.95;2.58;;;23.90;49.30;;;;;;4963809;28;20390;-87
2021/05/31 08:40:27;;;;;;;5.55;3.95;;;24.00;48.90;;;;;;4965056;28;20023;-86
2021/05/31 08:42:53;;;;;;;6.72;4.50;;;23.90;48.40;;;;;;4970582;28;20030;-87
2021/05/31 08:45:25;;;;;;;5.07;3.30;;;23.70;48.00;;;;;;4971491;28;20525;-86
2021/05/31 08:47:52;;;;;;;5.75;3.13;;;23.80;48.60;;;;;;4969415;28;20026;-85
2021/05/31 08:50:21;;;;;;;6.20;4.32;;;23.90;48.50;;;;;;4970741;28;20105;-85
2021/05/31 08:52:48;;;;;;;5.32;3.40;;;23.70;47.60;;;;;;4967191;28;20062;-84
2021/05/31 08:55:15;;;;;;;4.78;3.78;;;23.50;48.30;;;;;;4961151;28;20394;-84
2021/05/31 08:57:41;;;;;;;4.80;3.30;;;23.50;48.20;;;;;;4969985;28;20378;-85
2021/05/31 09:00:13;;;;;;;3.88;3.25;;;23.50;48.50;;;;;;4966991;28;20418;-84
2021/05/31 09:02:39;;;;;;;5.57;3.80;;;23.80;48.50;;;;;;4964697;28;20031;-84
2021/05/31 09:05:06;;;;;;;6.60;3.65;;;23.70;47.20;;;;;;4975789;28;20306;-84
2021/05/31 09:07:32;;;;;;;5.82;4.72;;;23.40;47.30;;;;;;4967285;28;20614;-85
2021/05/31 09:09:58;;;;;;;7.03;4.57;;;23.30;47.50;;;;;;4972168;28;20130;-85
2021/05/31 09:12:36;;;;;;;6.38;4.88;;;23.10;48.00;;;;;;4971048;28;20018;-86
2021/05/31 09:15:10;;;;;;;7.43;5.20;;;23.00;48.40;;;;;;4964822;28;20490;-85
2021/05/31 09:17:37;;;;;;;6.22;4.72;;;23.00;48.50;;;;;;4970124;28;20499;-84
2021/05/31 09:20:06;;;;;;;6.05;3.92;;;22.90;48.70;;;;;;4973000;28;20031;-85
2021/05/31 09:22:31;;;;;;;5.88;4.50;;;23.00;49.10;;;;;;4969997;28;20500;-86
2021/05/31 09:25:03;;;;;;;6.13;5.03;;;23.10;48.80;;;;;;4969893;28;20066;-86
2021/05/31 09:27:29;;;;;;;7.40;5.95;;;23.20;48.20;;;;;;4970677;28;20041;-86
2021/05/31 09:29:56;;;;;;;7.30;4.88;;;23.00;47.80;;;;;;4967830;28;20482;-86
2021/05/31 09:32:21;;;;;;;4.93;3.75;;;22.90;48.30;;;;;;4971819;28;20037;-85
2021/05/31 09:35:08;;;;;;;5.80;4.20;;;22.90;48.40;;;;;;4970306;28;20030;-86
2021/05/31 09:37:46;;;;;;;7.05;4.60;;;22.70;48.20;;;;;;4987741;28;20078;-86
2021/05/31 09:40:17;;;;;;;4.43;3.10;;;22.60;48.50;;;;;;4968681;28;20047;-84
2021/05/31 09:42:54;;;;;;;9.45;6.03;;;22.90;48.70;;;;;;4969180;28;20037;-85
2021/05/31 09:45:20;;;;;;;7.35;4.93;;;22.90;47.90;;;;;;4966805;28;20637;-86
2021/05/31 09:47:46;;;;;;;5.78;4.30;;;22.90;48.30;;;;;;4968680;28;20056;-86
2021/05/31 09:50:28;;;;;;;7.82;4.95;;;23.00;48.00;;;;;;4965622;28;20034;-89
2021/05/31 09:53:06;;;;;;;5.60;3.85;;;23.00;47.60;;;;;;4963570;28;20107;-88
2021/05/31 09:55:45;;;;;;;8.95;4.90;;;23.20;47.70;;;;;;4965975;28;20105;-88
2021/05/31 09:58:12;;;;;;;3.85;3.00;;;23.30;47.10;;;;;;4967930;28;20023;-88
2021/05/31 10:00:39;;;;;;;6.68;3.80;;;23.40;47.40;;;;;;4968401;28;20027;-86
2021/05/31 10:03:18;;;;;;;4.93;3.88;;;23.50;46.80;;;;;;4968256;28;20787;-87
2021/05/31 10:10:42;;;;;;;6.25;4.13;;;23.20;46.40;;;;;;4971947;28;20035;-85
2021/05/31 10:13:07;;;;;;;4.70;3.78;;;23.20;46.70;;;;;;4973745;28;20037;-87
2021/05/31 10:15:36;;;;;;;7.45;4.25;;;23.40;46.80;;;;;;4970703;28;20023;-86
2021/05/31 10:18:03;;;;;;;4.70;3.33;;;23.50;45.30;;;;;;4972337;28;20026;-86
2021/05/31 10:20:30;;;;;;;3.45;2.88;;;23.30;45.60;;;;;;4970771;28;20254;-88
2021/05/31 10:22:57;;;;;;;4.55;3.60;;;23.40;45.80;;;;;;4972507;28;20035;-89
2021/05/31 10:25:27;;;;;;;3.83;2.80;;;23.70;45.40;;;;;;4972745;28;20458;-85
2021/05/31 10:28:03;;;;;;;4.03;2.80;;;23.70;45.20;;;;;;4973037;28;20027;-88
2021/05/31 10:30:39;;;;;;;6.03;4.18;;;23.90;45.30;;;;;;4972344;28;20412;-87
2021/05/31 10:33:14;;;;;;;6.35;3.88;;;23.80;44.60;;;;;;4970629;28;20042;-87
2021/05/31 10:35:41;;;;;;;4.78;3.80;;;23.60;44.80;;;;;;4969660;28;20493;-87
2021/05/31 10:38:14;;;;;;;4.93;3.28;;;23.50;44.30;;;;;;4970635;28;20501;-87
2021/05/31 10:40:44;;;;;;;3.67;2.70;;;23.30;44.40;;;;;;4964713;28;20086;-87
2021/05/31 10:43:19;;;;;;;4.00;2.80;;;23.30;44.80;;;;;;4969025;28;20022;-87
2021/05/31 10:45:48;;;;;;;4.97;3.90;;;23.40;45.10;;;;;;4967762;28;20150;-88
2021/05/31 10:48:20;;;;;;;5.35;3.22;;;23.40;45.10;;;;;;4970702;28;20446;-87
2021/05/31 10:50:46;;;;;;;;;;;23.60;45.40;;;;;;4972880;28;20382;-86
2021/05/31 10:53:30;;;;;;;5.40;2.97;;;23.80;45.50;;;;;;4972547;28;19910;-87
2021/05/31 10:56:03;;;;;;;3.55;3.00;;;24.00;45.10;;;;;;4969068;28;20118;-88
2021/05/31 10:58:35;;;;;;;4.50;3.10;;;24.20;44.10;;;;;;4958218;28;20059;-88
2021/05/31 11:01:08;;;;;;;5.00;3.53;;;24.10;43.50;;;;;;4964767;28;20118;-88
2021/05/31 11:03:53;;;;;;;3.53;2.80;;;23.90;42.90;;;;;;4961957;28;20070;-88
2021/05/31 11:06:21;;;;;;;3.75;2.90;;;23.90;43.60;;;;;;4971659;28;20177;-87
2021/05/31 11:08:49;;;;;;;4.72;3.10;;;23.90;43.20;;;;;;4965191;28;20086;-87
2021/05/31 11:11:49;;;;;;;4.25;3.15;;;23.80;42.50;;;;;;4970628;28;20497;-84
2021/05/31 11:14:39;;;;;;;3.58;2.55;;;23.60;42.00;;;;;;4961703;28;20035;-88
2021/05/31 11:17:10;;;;;;;4.40;2.75;;;23.80;43.00;;;;;;4973176;28;20098;-87
2021/05/31 11:19:47;;;;;;;2.97;2.20;;;23.90;42.40;;;;;;4971405;28;20050;-88
2021/05/31 11:22:22;;;;;;;4.20;3.05;;;24.00;42.80;;;;;;4974579;28;20505;-91
2021/05/31 11:24:56;;;;;;;3.78;2.80;;;24.10;42.00;;;;;;4972391;28;20088;-87
2021/05/31 11:27:42;;;;;;;2.60;2.40;;;24.10;42.00;;;;;;4972982;28;20030;-87
2021/05/31 11:30:16;;;;;;;2.88;2.50;;;24.10;42.10;;;;;;4963051;28;20035;-89
2021/05/31 11:32:43;;;;;;;5.93;3.97;;;24.40;42.30;;;;;;4972513;28;20498;-89
2021/05/31 11:35:12;;;;;;;3.90;2.95;;;24.50;41.50;;;;;;4968543;28;20023;-88
2021/05/31 11:37:38;;;;;;;3.80;3.40;;;24.50;42.10;;;;;;4974492;28;20057;-92
2021/05/31 11:40:14;;;;;;;4.20;3.33;;;24.50;42.60;;;;;;4976809;28;20035;-91
2021/05/31 11:42:44;;;;;;;4.03;3.05;;;24.40;41.60;;;;;;4975246;28;20082;-90
2021/05/31 11:45:10;;;;;;;4.05;3.20;;;24.30;41.80;;;;;;4971445;28;20034;-91
2021/05/31 11:47:39;;;;;;;4.88;3.22;;;24.30;41.40;;;;;;4964839;28;20034;-91
2021/05/31 11:50:05;;;;;;;3.90;3.13;;;24.40;41.40;;;;;;4980426;28;20098;-91
2021/05/31 11:52:43;;;;;;;3.80;3.03;;;24.30;42.00;;;;;;4972939;28;20634;-92
2021/05/31 11:55:14;;;;;;;2.70;2.20;;;24.60;42.20;;;;;;4968197;28;20027;-88
2021/05/31 11:57:43;;;;;;;4.43;2.90;;;25.00;41.70;;;;;;4970979;28;20532;-90
2021/05/31 12:00:09;;;;;;;5.55;3.38;;;24.90;40.50;;;;;;4973316;28;20082;-89
2021/05/31 12:02:39;;;;;;;3.88;3.08;;;24.60;40.00;;;;;;4978663;28;20055;-90
2021/05/31 12:05:05;;;;;;;4.50;3.60;;;24.60;41.00;;;;;;4974037;28;20035;-91
2021/05/31 12:07:31;;;;;;;5.43;4.00;;;24.40;41.40;;;;;;4975177;28;20437;-93
2021/05/31 12:10:07;;;;;;;5.07;3.53;;;24.30;41.30;;;;;;4973600;28;20062;-92
2021/05/31 12:12:32;;;;;;;3.30;2.83;;;24.20;41.30;;;;;;4960815;28;20015;-90
2021/05/31 12:14:59;;;;;;;4.47;3.20;;;24.30;41.50;;;;;;4974141;28;20101;-89
2021/05/31 12:17:26;;;;;;;4.07;3.08;;;24.50;41.30;;;;;;4977852;28;20436;-92
2021/05/31 12:19:53;;;;;;;4.95;3.00;;;24.40;41.10;;;;;;4991912;28;20592;-86
2021/05/31 12:22:20;;;;;;;3.53;2.38;;;24.50;41.40;;;;;;4979758;28;20041;-92
2021/05/31 12:24:51;;;;;;;2.63;2.20;;;24.70;41.20;;;;;;4973803;28;20038;-91
2021/05/31 12:27:29;;;;;;;3.53;2.60;;;24.90;40.40;;;;;;4970032;28;20141;-89
2021/05/31 12:29:56;;;;;;;4.05;2.55;;;24.90;38.90;;;;;;4968748;28;20023;-90
2021/05/31 12:32:24;;;;;;;3.92;2.72;;;24.80;39.50;;;;;;4972582;28;20049;-91
2021/05/31 12:34:55;;;;;;;3.42;2.00;;;24.90;38.70;;;;;;4965824;28;20113;-90
2021/05/31 12:37:32;;;;;;;3.70;2.03;;;25.20;39.00;;;;;;4973729;28;20039;-88
2021/05/31 12:40:03;;;;;;;3.35;2.10;;;25.60;38.90;;;;;;4987902;28;20063;-91
2021/05/31 12:42:30;;;;;;;4.70;2.08;;;25.60;38.10;;;;;;4968145;28;20022;-91
2021/05/31 12:45:15;;;;;;;2.70;2.20;;;25.80;37.70;;;;;;4973670;28;20504;-92
2021/05/31 12:47:45;;;;;;;2.63;1.85;;;25.80;37.10;;;;;;4984046;28;20022;-90
2021/05/31 12:50:28;;;;;;;3.90;2.72;;;26.10;37.50;;;;;;4998087;28;20077;-91
2021/05/31 12:53:13;;;;;;;3.45;2.80;;;26.30;37.20;;;;;;4970222;28;21105;-90
2021/05/31 12:55:42;;;;;;;3.25;2.50;;;26.20;37.10;;;;;;4967256;28;20031;-91
2021/05/31 12:58:21;;;;;;;4.45;2.92;;;26.10;37.00;;;;;;4968389;28;20477;-89
2021/05/31 13:00:53;;;;;;;5.68;3.03;;;25.80;36.40;;;;;;4972206;28;20505;-89
2021/05/31 13:03:21;;;;;;;3.05;2.47;;;25.60;37.30;;;;;;4976160;28;20038;-88
2021/05/31 13:05:51;;;;;;;4.53;3.40;;;25.70;37.90;;;;;;4970128;28;20045;-91
2021/05/31 13:08:20;;;;;;;;;;;25.80;38.20;;;;;;4969195;28;20129;-91
2021/05/31 13:10:56;;;;;;;3.97;3.20;;;25.90;38.30;;;;;;4963381;28;19945;-88
2021/05/31 13:13:33;;;;;;;4.20;2.70;;;25.90;38.40;;;;;;4967407;28;20048;-89